Ana Sayfa
METAR-TAF:

METAR-TAF

Havaalanları :

Cam Ranh Uluslararası Havaalanı

Cam Ranh, Vietnam

Enlem: 11-59-53N, Boylam: 109-13-10E, yükseklik: 12 m

Güncel hava durumu gözlemi

Rapor saat 18:00 UTC de 35 dakika önce yapıldı.
Rüzgar kuzeydan 4 kt
Sıcaklık 22°C
Nem 83%
Basınç 1014 hPa
Görüş mesafesi 10 km veya daha fazla
1500 ft yükseklikte az bulutlu

METAR: VVCR 101800Z 35004KT 9999 FEW015 22/19 Q1014 NOSIG

Saat: 01:35 (18:35 UTC)

Tahmin

Rapor saat 17:00 UTC de 1 saat ve 35 dakika önce yapıldı.
Ayın 10'si saat 18 UTC'den ayın 11'si saat 18 UTC'ye kadar geçerli Tahmin
Rüzgar kuzey/kuzeybatıdan 6 kt
Görüş mesafesi: 8000 m
1500 ft yükseklikte parçalı bulutlu
5000 ft yükseklikte parçalı bulutlu
Dönüşüyor
ayın 11'si saat 02 UTC'den ayın 11'si saat 03 UTC'ye kadar
Rüzgar doğu/kuzeydoğudan 16 kt

TAF: VVCR 101700Z 1018/1118 34006KT 8000 SCT015 SCT050 BECMG 1102/1103 06016KT

4.000'den fazla havaalanı için hava durumu gözlemleri ve tahminleri (METAR ve TAF raporları).

Kullanılabilir istasyonlar harita üzerinde sarı ve kırmızı noktalarla gösterilir.

İstasyonun adını görmek için fareyi noktanın üzerinde gezdirin.

Sonrasında hava gözlem ve tahminlerini görmek için tıklayın.

Haritayı değiştirmek için: yaklaştırmak için siyah artı işaretli yeşil düğmeye ve uzaklaştırmak için de eksi işaretli düğmeye hızla tıklayın; bitişik haritalar için yeşil okları kullanın.


METAR-TAF: